Mer Rouge, Louisiana
Current Conditions -  °F | °C
As of 12:35 PM on Thursday 27 Nov 2014 (Local Time) from KBQP Reporting Station
Clear Clear  
Wind Chill: 51°   Ceiling: Unl
Heat Index: 51°   Visibility: 10mi
Dew Point: 29°   Wind: 6mph
Humidity: 44%   Direction: 50°NE
Pressure: 30.51"   Gusts: NA
Location:  32.78°N, 91.79°W
Report Text: KBQP 271835Z AUTO 05005KT 10SM CLR 10/M01 A3051 RMK AO2 T01041015
Loading
Personal Weather Stations






























Interactive Weather Map New forecast layout! Learn more

10-Day Weather Forecast

Advertisements
Track Severe Weather on mobile